Time;durP1;ratioP1;P1;durP2;ratioP2;P2;SDS_P1;SDS_P2;PMS_P1;PMS_P2;Temp;Humidity;BMP_temperature;BMP_pressure;BME280_temperature;BME280_humidity;BME280_pressure;Samples;Min_cycle;Max_cycle;Signal;HPM_P1;HPM_P2
2024/01/21 00:00:53;;;;;;;1.95;1.42;;;;;;;;;;5027871;28;20419;-61
2024/01/21 00:03:18;;;;;;;2.10;1.50;;;;;;;;;;5007463;28;20113;-60
2024/01/21 00:05:44;;;;;;;2.05;1.60;;;;;;;;;;5007741;28;20418;-62
2024/01/21 00:08:09;;;;;;;2.20;1.52;;;;;;;;;;5007659;28;20077;-61
2024/01/21 00:10:34;;;;;;;2.92;1.80;;;;;;;;;;5006846;28;20061;-61
2024/01/21 00:12:59;;;;;;;2.78;1.70;;;;;;;;;;5005115;28;20038;-62
2024/01/21 00:15:25;;;;;;;2.83;1.25;;;;;;;;;;5007875;28;20045;-63
2024/01/21 00:17:50;;;;;;;2.33;1.30;;;;;;;;;;5012017;28;20593;-58
2024/01/21 00:20:15;;;;;;;2.42;1.52;;;;;;;;;;5019246;28;20045;-61
2024/01/21 00:22:41;;;;;;;2.22;1.45;;;;;;;;;;4993070;28;20132;-57
2024/01/21 00:25:09;;;;;;;2.10;1.35;;;;;;;;;;4987144;28;20546;-57
2024/01/21 00:27:40;;;;;;;2.10;1.35;;;;;;;;;;4984462;28;20046;-65
2024/01/21 00:30:05;;;;;;;2.10;1.40;;;;;;;;;;4990357;28;20133;-59
2024/01/21 00:32:31;;;;;;;2.78;1.30;;;;;;;;;;5005558;28;20049;-62
2024/01/21 00:34:57;;;;;;;2.55;1.60;;;;;;;;;;5008927;28;20038;-58
2024/01/21 00:37:22;;;;;;;2.05;1.30;;;;;;;;;;5007840;28;20111;-57
2024/01/21 00:39:47;;;;;;;2.25;1.40;;;;;;;;;;5008720;28;20038;-60
2024/01/21 00:42:13;;;;;;;2.40;1.60;;;;;;;;;;5008254;28;20531;-58
2024/01/21 00:44:38;;;;;;;2.05;1.33;;;;;;;;;;5011866;28;20129;-59
2024/01/21 00:47:04;;;;;;;1.90;1.20;;;;;;;;;;5011079;28;20064;-66
2024/01/21 00:49:30;;;;;;;2.10;1.45;;;;;;;;;;5017143;28;20046;-67
2024/01/21 00:51:56;;;;;;;1.92;1.40;;;;;;;;;;5018669;28;20044;-66
2024/01/21 00:54:21;;;;;;;1.88;1.30;;;;;;;;;;5002180;28;20120;-66
2024/01/21 00:56:46;;;;;;;2.53;1.40;;;;;;;;;;5016699;28;20499;-67
2024/01/21 00:59:12;;;;;;;2.70;1.20;;;;;;;;;;5009672;28;20038;-66
2024/01/21 01:04:40;;;;;;;1.85;1.40;;;;;;;;;;5007431;28;20132;-59
2024/01/21 01:07:05;;;;;;;1.67;1.30;;;;;;;;;;4984019;28;20117;-66
2024/01/21 01:09:30;;;;;;;1.83;1.20;;;;;;;;;;4992552;28;20039;-67
2024/01/21 01:11:56;;;;;;;2.22;1.25;;;;;;;;;;4984172;28;20452;-67
2024/01/21 01:14:21;;;;;;;2.00;1.20;;;;;;;;;;4994541;28;20033;-67
2024/01/21 01:16:47;;;;;;;2.33;1.50;;;;;;;;;;5008905;28;20056;-67
2024/01/21 01:19:12;;;;;;;2.47;1.42;;;;;;;;;;5007004;28;20033;-67
2024/01/21 01:21:37;;;;;;;2.80;1.50;;;;;;;;;;5005883;28;20105;-67
2024/01/21 01:24:03;;;;;;;1.83;1.30;;;;;;;;;;4979222;28;20030;-67
2024/01/21 01:26:28;;;;;;;2.40;1.60;;;;;;;;;;4974117;28;20019;-67
2024/01/21 01:28:53;;;;;;;1.90;1.40;;;;;;;;;;4979524;28;20127;-68
2024/01/21 01:31:19;;;;;;;2.10;1.40;;;;;;;;;;4989898;28;20022;-67
2024/01/21 01:33:44;;;;;;;2.20;1.20;;;;;;;;;;5001752;28;20014;-67
2024/01/21 01:36:10;;;;;;;2.58;1.40;;;;;;;;;;5004567;28;20105;-67
2024/01/21 01:38:36;;;;;;;2.13;1.17;;;;;;;;;;4992182;28;20044;-67
2024/01/21 01:41:01;;;;;;;1.75;1.17;;;;;;;;;;5009223;28;20022;-67
2024/01/21 01:43:26;;;;;;;1.70;1.23;;;;;;;;;;5007477;28;20112;-61
2024/01/21 01:45:51;;;;;;;2.78;1.23;;;;;;;;;;5010071;28;20041;-60
2024/01/21 01:48:18;;;;;;;1.70;1.30;;;;;;;;;;5025256;28;20045;-60
2024/01/21 01:50:44;;;;;;;1.73;1.10;;;;;;;;;;4997504;28;20107;-67
2024/01/21 01:53:09;;;;;;;2.75;1.48;;;;;;;;;;5009203;28;20474;-61
2024/01/21 01:55:34;;;;;;;2.10;1.20;;;;;;;;;;5015321;28;20519;-64
2024/01/21 01:58:00;;;;;;;2.03;1.00;;;;;;;;;;5008962;28;20528;-66
2024/01/21 02:00:25;;;;;;;2.15;1.27;;;;;;;;;;5007301;28;20144;-65
2024/01/21 02:02:50;;;;;;;2.20;1.33;;;;;;;;;;5012254;28;20029;-65
2024/01/21 02:05:16;;;;;;;2.25;1.30;;;;;;;;;;5014267;28;20041;-68
2024/01/21 02:07:41;;;;;;;1.83;1.15;;;;;;;;;;5022136;28;20044;-66
2024/01/21 02:10:07;;;;;;;1.95;1.30;;;;;;;;;;5028869;28;20479;-68
2024/01/21 02:12:32;;;;;;;1.75;1.20;;;;;;;;;;5010822;28;20113;-66
2024/01/21 02:14:57;;;;;;;1.88;1.30;;;;;;;;;;5008589;28;20042;-61
2024/01/21 02:17:23;;;;;;;1.73;1.23;;;;;;;;;;5007405;28;20065;-59
2024/01/21 02:19:48;;;;;;;1.50;1.20;;;;;;;;;;5008815;28;20867;-59
2024/01/21 02:22:14;;;;;;;2.15;1.20;;;;;;;;;;5009145;28;20038;-61
2024/01/21 02:24:39;;;;;;;1.80;1.25;;;;;;;;;;5012495;28;20033;-65
2024/01/21 02:27:04;;;;;;;1.92;1.40;;;;;;;;;;5009887;28;20428;-66
2024/01/21 02:29:30;;;;;;;1.60;1.10;;;;;;;;;;5008812;28;20439;-65
2024/01/21 02:31:56;;;;;;;1.80;1.20;;;;;;;;;;5009867;28;20169;-61
2024/01/21 02:34:21;;;;;;;1.98;1.20;;;;;;;;;;5004649;28;20072;-60
2024/01/21 02:36:46;;;;;;;3.00;1.30;;;;;;;;;;5023247;28;20033;-66
2024/01/21 02:39:12;;;;;;;2.05;1.20;;;;;;;;;;5023273;28;20057;-64
2024/01/21 02:41:37;;;;;;;2.03;1.05;;;;;;;;;;5007717;28;20049;-67
2024/01/21 02:44:03;;;;;;;1.95;1.10;;;;;;;;;;5010843;28;20064;-67
2024/01/21 02:46:28;;;;;;;1.88;1.27;;;;;;;;;;5006895;28;20121;-66
2024/01/21 02:48:53;;;;;;;2.40;1.15;;;;;;;;;;5019534;28;20050;-67
2024/01/21 02:51:18;;;;;;;1.95;1.10;;;;;;;;;;5006754;28;20409;-67
2024/01/21 02:53:44;;;;;;;1.65;0.93;;;;;;;;;;5004027;28;20076;-66
2024/01/21 02:56:19;;;;;;;1.67;1.02;;;;;;;;;;5003717;28;20038;-67
2024/01/21 02:58:44;;;;;;;1.80;1.20;;;;;;;;;;5007257;28;20038;-67
2024/01/21 03:01:09;;;;;;;1.58;1.00;;;;;;;;;;5007954;28;20112;-67
2024/01/21 03:03:35;;;;;;;1.95;1.30;;;;;;;;;;5012135;28;20057;-67
2024/01/21 03:06:00;;;;;;;2.10;1.20;;;;;;;;;;5010790;28;20521;-67
2024/01/21 03:08:25;;;;;;;1.98;1.05;;;;;;;;;;5021580;28;20073;-67
2024/01/21 03:10:51;;;;;;;1.42;1.10;;;;;;;;;;5008030;28;20030;-67
2024/01/21 03:13:16;;;;;;;1.70;1.25;;;;;;;;;;5013542;28;20111;-62
2024/01/21 03:15:41;;;;;;;1.85;1.20;;;;;;;;;;5008221;28;20029;-61
2024/01/21 03:18:07;;;;;;;1.50;0.90;;;;;;;;;;5021481;28;20045;-61
2024/01/21 03:20:32;;;;;;;1.40;0.80;;;;;;;;;;5027725;28;20052;-61
2024/01/21 03:22:57;;;;;;;1.20;0.98;;;;;;;;;;5009534;28;20773;-61
2024/01/21 03:25:23;;;;;;;2.10;0.90;;;;;;;;;;5008360;28;20041;-58
2024/01/21 03:27:48;;;;;;;1.85;1.10;;;;;;;;;;5027601;28;20029;-58
2024/01/21 03:30:13;;;;;;;1.33;0.75;;;;;;;;;;5028237;28;20046;-61
2024/01/21 03:32:38;;;;;;;1.30;0.88;;;;;;;;;;5016683;28;20535;-58
2024/01/21 03:35:04;;;;;;;1.70;1.10;;;;;;;;;;5005801;28;20427;-55
2024/01/21 03:37:29;;;;;;;1.38;0.88;;;;;;;;;;5006604;28;20060;-57
2024/01/21 03:39:55;;;;;;;1.88;0.90;;;;;;;;;;5007850;28;20065;-56
2024/01/21 03:42:20;;;;;;;1.52;0.90;;;;;;;;;;5006777;28;20038;-55
2024/01/21 03:44:47;;;;;;;1.80;0.93;;;;;;;;;;5016016;28;20054;-56
2024/01/21 03:47:12;;;;;;;1.50;1.00;;;;;;;;;;5011320;28;20438;-58
2024/01/21 03:49:38;;;;;;;2.38;0.90;;;;;;;;;;4994189;28;20046;-61
2024/01/21 03:52:03;;;;;;;1.83;1.02;;;;;;;;;;5002671;28;20081;-58
2024/01/21 03:54:28;;;;;;;1.10;0.70;;;;;;;;;;5002998;28;20046;-57
2024/01/21 03:56:54;;;;;;;1.45;0.90;;;;;;;;;;5002996;28;20367;-56
2024/01/21 03:59:19;;;;;;;1.40;1.00;;;;;;;;;;4998450;28;20053;-58
2024/01/21 04:01:44;;;;;;;1.40;0.90;;;;;;;;;;4995870;28;20521;-58
2024/01/21 04:04:10;;;;;;;1.35;0.80;;;;;;;;;;5005485;28;20042;-60
2024/01/21 04:06:42;;;;;;;1.42;0.82;;;;;;;;;;5012690;28;20160;-62
2024/01/21 04:09:12;;;;;;;1.52;0.90;;;;;;;;;;5005416;28;20129;-60
2024/01/21 04:11:37;;;;;;;1.40;1.00;;;;;;;;;;5006835;28;20053;-59
2024/01/21 04:14:03;;;;;;;1.58;0.90;;;;;;;;;;5007614;28;20041;-65
2024/01/21 04:16:28;;;;;;;1.10;0.70;;;;;;;;;;5011874;28;20041;-57
2024/01/21 04:18:54;;;;;;;1.20;0.80;;;;;;;;;;5008520;28;20124;-57
2024/01/21 04:21:19;;;;;;;1.50;0.90;;;;;;;;;;5008638;28;20057;-59
2024/01/21 04:23:45;;;;;;;1.80;0.88;;;;;;;;;;5008210;28;20121;-58
2024/01/21 04:26:10;;;;;;;1.25;0.82;;;;;;;;;;5011377;28;20405;-58
2024/01/21 04:28:38;;;;;;;1.67;1.00;;;;;;;;;;5025892;28;20025;-57
2024/01/21 04:31:04;;;;;;;1.75;1.20;;;;;;;;;;5012937;28;20096;-57
2024/01/21 04:33:29;;;;;;;1.20;0.70;;;;;;;;;;5007488;28;20034;-61
2024/01/21 04:35:56;;;;;;;1.40;0.68;;;;;;;;;;5007842;28;20042;-59
2024/01/21 04:38:23;;;;;;;1.38;0.77;;;;;;;;;;5006183;28;20417;-62
2024/01/21 04:40:49;;;;;;;1.33;0.70;;;;;;;;;;5009098;28;20045;-56
2024/01/21 04:43:14;;;;;;;1.77;0.90;;;;;;;;;;5013527;28;20052;-58
2024/01/21 04:45:39;;;;;;;1.45;0.90;;;;;;;;;;4999462;28;20097;-56
2024/01/21 04:48:05;;;;;;;1.55;0.80;;;;;;;;;;4999215;28;20030;-55
2024/01/21 04:50:30;;;;;;;1.38;0.85;;;;;;;;;;5005332;28;20042;-55
2024/01/21 04:52:55;;;;;;;1.45;0.90;;;;;;;;;;5009537;28;20404;-58
2024/01/21 04:55:21;;;;;;;1.10;0.70;;;;;;;;;;5008456;28;20113;-56
2024/01/21 04:57:46;;;;;;;1.27;0.60;;;;;;;;;;5008334;28;20423;-60
2024/01/21 05:00:12;;;;;;;1.50;0.90;;;;;;;;;;5005759;28;20030;-62
2024/01/21 05:02:37;;;;;;;1.08;0.70;;;;;;;;;;5017935;28;20041;-59
2024/01/21 05:05:02;;;;;;;1.08;0.60;;;;;;;;;;4997606;28;20034;-60
2024/01/21 05:07:27;;;;;;;2.17;0.90;;;;;;;;;;4999308;28;20739;-62
2024/01/21 05:09:53;;;;;;;1.38;0.80;;;;;;;;;;5008836;28;20548;-61
2024/01/21 05:12:18;;;;;;;1.10;0.70;;;;;;;;;;5008719;28;20046;-63
2024/01/21 05:14:43;;;;;;;1.52;0.98;;;;;;;;;;5008457;28;20049;-62
2024/01/21 05:17:09;;;;;;;1.13;0.60;;;;;;;;;;5008617;28;20030;-56
2024/01/21 05:19:34;;;;;;;1.15;0.70;;;;;;;;;;5007359;28;20026;-55
2024/01/21 05:22:00;;;;;;;1.27;0.77;;;;;;;;;;5019583;28;20873;-54
2024/01/21 05:24:25;;;;;;;1.35;0.77;;;;;;;;;;4996899;28;20031;-60
2024/01/21 05:26:50;;;;;;;1.42;0.70;;;;;;;;;;4980070;28;20046;-66
2024/01/21 05:29:16;;;;;;;1.45;0.70;;;;;;;;;;4989583;28;20047;-66
2024/01/21 05:31:41;;;;;;;1.35;0.88;;;;;;;;;;4986764;28;20385;-66
2024/01/21 05:34:06;;;;;;;0.80;0.63;;;;;;;;;;4985592;28;20417;-67
2024/01/21 05:36:32;;;;;;;1.08;0.82;;;;;;;;;;4990066;28;20121;-68
2024/01/21 05:38:57;;;;;;;1.42;0.75;;;;;;;;;;4994529;28;20050;-67
2024/01/21 05:41:22;;;;;;;1.10;0.80;;;;;;;;;;4989557;28;20110;-67
2024/01/21 05:43:48;;;;;;;1.13;0.70;;;;;;;;;;5001126;28;20468;-67
2024/01/21 05:46:13;;;;;;;1.00;0.55;;;;;;;;;;5008500;28;20558;-63
2024/01/21 05:48:38;;;;;;;1.23;0.82;;;;;;;;;;5026683;28;20514;-58
2024/01/21 05:51:04;;;;;;;1.40;0.88;;;;;;;;;;5020028;28;20045;-59
2024/01/21 05:53:29;;;;;;;1.13;0.63;;;;;;;;;;5008004;28;20153;-58
2024/01/21 05:55:54;;;;;;;1.50;0.60;;;;;;;;;;5010558;28;20029;-59
2024/01/21 05:58:20;;;;;;;0.80;0.70;;;;;;;;;;5010520;28;20066;-58
2024/01/21 06:00:45;;;;;;;1.20;0.70;;;;;;;;;;5007484;28;20117;-60
2024/01/21 06:03:10;;;;;;;1.40;0.80;;;;;;;;;;5010659;28;20044;-60
2024/01/21 06:05:35;;;;;;;1.10;0.60;;;;;;;;;;5010071;28;20474;-61
2024/01/21 06:08:01;;;;;;;0.95;0.60;;;;;;;;;;5013704;28;20480;-61
2024/01/21 06:10:26;;;;;;;1.13;0.60;;;;;;;;;;5009293;28;20486;-60
2024/01/21 06:12:51;;;;;;;0.95;0.60;;;;;;;;;;5008415;28;20030;-62
2024/01/21 06:15:17;;;;;;;1.40;0.65;;;;;;;;;;5008741;28;20093;-58
2024/01/21 06:17:43;;;;;;;1.05;0.60;;;;;;;;;;5009181;28;20037;-65
2024/01/21 06:20:11;;;;;;;2.08;0.77;;;;;;;;;;5006602;28;20060;-63
2024/01/21 06:22:37;;;;;;;1.40;0.70;;;;;;;;;;5010919;28;20052;-65
2024/01/21 06:25:03;;;;;;;2.78;0.75;;;;;;;;;;4995919;28;20125;-60
2024/01/21 06:27:28;;;;;;;2.08;0.70;;;;;;;;;;5005116;28;20038;-62
2024/01/21 06:29:54;;;;;;;1.60;0.90;;;;;;;;;;5013785;28;20053;-56
2024/01/21 06:32:19;;;;;;;1.88;0.70;;;;;;;;;;5007360;28;20117;-64
2024/01/21 06:34:44;;;;;;;1.45;0.90;;;;;;;;;;5006999;28;20124;-64
2024/01/21 06:37:10;;;;;;;1.52;0.80;;;;;;;;;;5010038;28;20089;-68
2024/01/21 06:39:35;;;;;;;1.00;0.60;;;;;;;;;;5019264;28;20195;-65
2024/01/21 06:42:01;;;;;;;1.15;0.65;;;;;;;;;;5009487;28;20168;-61
2024/01/21 06:44:26;;;;;;;1.95;0.90;;;;;;;;;;5011915;28;20124;-63
2024/01/21 06:46:51;;;;;;;1.15;0.70;;;;;;;;;;5009034;28;20038;-59
2024/01/21 06:49:17;;;;;;;1.40;0.95;;;;;;;;;;5007809;28;20133;-60
2024/01/21 06:51:54;;;;;;;2.25;1.08;;;;;;;;;;5003850;28;20036;-62
2024/01/21 06:54:19;;;;;;;1.85;0.77;;;;;;;;;;5001804;28;20523;-62
2024/01/21 06:56:45;;;;;;;2.22;0.77;;;;;;;;;;5007874;28;20042;-61
2024/01/21 06:59:10;;;;;;;1.55;0.80;;;;;;;;;;5005759;28;20056;-58
2024/01/21 07:01:36;;;;;;;1.67;1.00;;;;;;;;;;5009634;28;20029;-57
2024/01/21 07:04:01;;;;;;;2.40;0.80;;;;;;;;;;5009455;28;20117;-64
2024/01/21 07:06:26;;;;;;;2.10;0.90;;;;;;;;;;5003467;28;20034;-64
2024/01/21 07:08:52;;;;;;;1.67;0.80;;;;;;;;;;5015261;28;20091;-57
2024/01/21 07:11:17;;;;;;;1.52;0.80;;;;;;;;;;4993463;28;20042;-62
2024/01/21 07:13:42;;;;;;;1.55;1.00;;;;;;;;;;5004157;28;20041;-60
2024/01/21 07:16:07;;;;;;;2.42;1.10;;;;;;;;;;5004434;28;20046;-58
2024/01/21 07:18:33;;;;;;;1.50;0.80;;;;;;;;;;5007105;28;20072;-67
2024/01/21 07:20:58;;;;;;;3.45;1.20;;;;;;;;;;5017091;28;20427;-66
2024/01/21 07:23:23;;;;;;;12.75;2.10;;;;;;;;;;5006553;28;20049;-65
2024/01/21 07:25:49;;;;;;;3.88;0.98;;;;;;;;;;4998072;28;20057;-59
2024/01/21 07:28:15;;;;;;;4.72;1.17;;;;;;;;;;5000040;28;20034;-61
2024/01/21 07:30:40;;;;;;;3.03;1.33;;;;;;;;;;4998751;28;20147;-64
2024/01/21 07:33:06;;;;;;;2.35;1.20;;;;;;;;;;5002522;28;20038;-67
2024/01/21 07:35:31;;;;;;;2.67;1.13;;;;;;;;;;5010487;28;20038;-67
2024/01/21 07:37:56;;;;;;;3.58;1.10;;;;;;;;;;5009511;28;20159;-66
2024/01/21 07:40:22;;;;;;;1.95;0.93;;;;;;;;;;5006282;28;20069;-62
2024/01/21 07:42:47;;;;;;;2.72;1.20;;;;;;;;;;5018508;28;20042;-59
2024/01/21 07:45:13;;;;;;;1.70;1.00;;;;;;;;;;4996684;28;20503;-59
2024/01/21 07:47:38;;;;;;;2.80;1.00;;;;;;;;;;5007162;28;20548;-58
2024/01/21 07:50:04;;;;;;;2.35;1.00;;;;;;;;;;5007870;28;20061;-61
2024/01/21 07:52:30;;;;;;;2.00;0.98;;;;;;;;;;4994536;28;20031;-59
2024/01/21 07:54:55;;;;;;;2.75;1.45;;;;;;;;;;4995890;28;20160;-67
2024/01/21 07:57:20;;;;;;;2.17;1.00;;;;;;;;;;5006933;28;20573;-60
2024/01/21 07:59:46;;;;;;;2.40;1.00;;;;;;;;;;5006873;28;20038;-62
2024/01/21 08:02:11;;;;;;;3.15;0.90;;;;;;;;;;5005043;28;20096;-59
2024/01/21 08:04:36;;;;;;;1.98;1.08;;;;;;;;;;5014071;28;20040;-59
2024/01/21 08:07:02;;;;;;;1.55;1.02;;;;;;;;;;5008453;28;20061;-59
2024/01/21 08:09:27;;;;;;;2.20;1.13;;;;;;;;;;5001117;28;20049;-60
2024/01/21 08:11:53;;;;;;;2.13;0.82;;;;;;;;;;4993792;28;20162;-59
2024/01/21 08:14:18;;;;;;;2.08;1.02;;;;;;;;;;4987863;28;20116;-59
2024/01/21 08:16:43;;;;;;;1.88;1.20;;;;;;;;;;4990349;28;20045;-59
2024/01/21 08:19:09;;;;;;;2.28;1.10;;;;;;;;;;4989833;28;20505;-59
2024/01/21 08:21:34;;;;;;;2.83;1.10;;;;;;;;;;5000959;28;20096;-60
2024/01/21 08:23:59;;;;;;;2.67;1.20;;;;;;;;;;4995318;28;20631;-60
2024/01/21 08:26:25;;;;;;;2.22;1.10;;;;;;;;;;4998660;28;20146;-60
2024/01/21 08:28:50;;;;;;;2.72;1.17;;;;;;;;;;5007635;28;20038;-59
2024/01/21 08:31:16;;;;;;;2.53;0.90;;;;;;;;;;5007082;28;20112;-61
2024/01/21 08:33:41;;;;;;;2.10;1.00;;;;;;;;;;5002910;28;20525;-60
2024/01/21 08:36:07;;;;;;;3.53;1.17;;;;;;;;;;5004133;28;20129;-58
2024/01/21 08:38:33;;;;;;;2.38;1.00;;;;;;;;;;5007688;28;20114;-62
2024/01/21 08:40:58;;;;;;;1.70;1.20;;;;;;;;;;5010881;28;20543;-59
2024/01/21 08:43:24;;;;;;;1.90;1.02;;;;;;;;;;5010982;28;20041;-60
2024/01/21 08:45:49;;;;;;;1.75;1.13;;;;;;;;;;5023695;28;20057;-59
2024/01/21 08:48:14;;;;;;;1.92;1.10;;;;;;;;;;4994130;28;20044;-61
2024/01/21 08:50:40;;;;;;;2.35;1.33;;;;;;;;;;4988163;28;20141;-62
2024/01/21 08:53:05;;;;;;;2.10;1.00;;;;;;;;;;4994972;28;20054;-59
2024/01/21 08:55:30;;;;;;;1.77;0.90;;;;;;;;;;4988334;28;20759;-59
2024/01/21 08:57:56;;;;;;;1.75;0.95;;;;;;;;;;4995415;28;20062;-59
2024/01/21 09:00:21;;;;;;;2.60;1.40;;;;;;;;;;4990650;28;20039;-60
2024/01/21 09:02:46;;;;;;;2.30;1.02;;;;;;;;;;4994483;28;20439;-61
2024/01/21 09:05:13;;;;;;;2.00;1.13;;;;;;;;;;4994874;28;20109;-61
2024/01/21 09:07:38;;;;;;;1.85;0.93;;;;;;;;;;4993433;28;20065;-64
2024/01/21 09:10:04;;;;;;;1.70;1.00;;;;;;;;;;4991072;28;20050;-60
2024/01/21 09:12:29;;;;;;;1.98;1.15;;;;;;;;;;4991943;28;20114;-63
2024/01/21 09:14:55;;;;;;;2.88;1.40;;;;;;;;;;4988167;28;20026;-60
2024/01/21 09:17:20;;;;;;;2.65;1.10;;;;;;;;;;4996404;28;20027;-63
2024/01/21 09:19:45;;;;;;;2.60;1.15;;;;;;;;;;4997732;28;20058;-63
2024/01/21 09:22:11;;;;;;;1.85;1.30;;;;;;;;;;4997251;28;20084;-63
2024/01/21 09:24:36;;;;;;;1.85;1.10;;;;;;;;;;4996142;28;20041;-61
2024/01/21 09:27:01;;;;;;;2.03;1.20;;;;;;;;;;5008456;28;20092;-62
2024/01/21 09:29:27;;;;;;;1.58;1.08;;;;;;;;;;5011084;28;20038;-60
2024/01/21 09:31:57;;;;;;;2.13;1.13;;;;;;;;;;5011134;28;20034;-60
2024/01/21 09:34:22;;;;;;;1.73;1.30;;;;;;;;;;5005958;28;20028;-60
2024/01/21 09:36:47;;;;;;;2.00;1.05;;;;;;;;;;5013676;28;20030;-59
2024/01/21 09:39:13;;;;;;;2.83;1.20;;;;;;;;;;5013128;28;20048;-59
2024/01/21 09:41:49;;;;;;;2.13;1.10;;;;;;;;;;5010636;28;20432;-60
2024/01/21 09:44:15;;;;;;;2.05;1.20;;;;;;;;;;5026282;28;20235;-61
2024/01/21 09:46:40;;;;;;;2.65;1.40;;;;;;;;;;5010438;28;20038;-59
2024/01/21 09:49:05;;;;;;;2.35;1.27;;;;;;;;;;5009069;28;20065;-59
2024/01/21 09:51:31;;;;;;;2.15;1.05;;;;;;;;;;5018839;28;20049;-63
2024/01/21 09:53:56;;;;;;;3.47;1.30;;;;;;;;;;5012106;28;20035;-62
2024/01/21 09:56:21;;;;;;;2.60;1.27;;;;;;;;;;4991109;28;20018;-65
2024/01/21 09:58:47;;;;;;;1.90;1.30;;;;;;;;;;4990846;28;20052;-61
2024/01/21 10:01:12;;;;;;;2.13;1.40;;;;;;;;;;5007548;28;20115;-59
2024/01/21 10:03:39;;;;;;;2.50;1.40;;;;;;;;;;5015175;28;20053;-57
2024/01/21 10:06:04;;;;;;;4.07;1.27;;;;;;;;;;4997991;28;20041;-59
2024/01/21 10:08:30;;;;;;;2.15;1.20;;;;;;;;;;5000187;28;20023;-60
2024/01/21 10:10:56;;;;;;;2.60;1.40;;;;;;;;;;5001232;28;20444;-60
2024/01/21 10:13:22;;;;;;;2.42;1.30;;;;;;;;;;4992938;28;20101;-60
2024/01/21 10:15:47;;;;;;;3.22;1.55;;;;;;;;;;4994487;28;20041;-62
2024/01/21 10:18:12;;;;;;;2.97;1.50;;;;;;;;;;5002901;28;20046;-61
2024/01/21 10:20:38;;;;;;;2.50;1.25;;;;;;;;;;4998717;28;20065;-61
2024/01/21 10:23:07;;;;;;;4.97;1.58;;;;;;;;;;5014598;28;20044;-58
2024/01/21 10:25:32;;;;;;;2.47;1.35;;;;;;;;;;5001679;28;20064;-58
2024/01/21 10:27:58;;;;;;;3.13;1.50;;;;;;;;;;5009574;28;20053;-58
2024/01/21 10:30:23;;;;;;;3.25;1.50;;;;;;;;;;5004546;28;20427;-59
2024/01/21 10:32:49;;;;;;;2.95;1.50;;;;;;;;;;5006175;28;20041;-60
2024/01/21 10:35:14;;;;;;;2.95;1.50;;;;;;;;;;5004404;28;20038;-60
2024/01/21 10:37:41;;;;;;;4.93;3.10;;;;;;;;;;5000675;28;20046;-61
2024/01/21 10:40:10;;;;;;;3.20;1.70;;;;;;;;;;5003270;28;20397;-58
2024/01/21 10:42:35;;;;;;;2.15;1.40;;;;;;;;;;4994412;28;20159;-59
2024/01/21 10:45:00;;;;;;;2.78;1.70;;;;;;;;;;5015216;28;20488;-61
2024/01/21 10:47:26;;;;;;;3.00;1.60;;;;;;;;;;5023177;28;20026;-61
2024/01/21 10:49:51;;;;;;;2.83;1.65;;;;;;;;;;5024566;28;20420;-57
2024/01/21 10:52:16;;;;;;;3.63;2.17;;;;;;;;;;5014772;28;20048;-56
2024/01/21 10:54:42;;;;;;;2.97;1.52;;;;;;;;;;5007888;28;20030;-67
2024/01/21 10:57:07;;;;;;;2.03;1.40;;;;;;;;;;4997569;28;20404;-59
2024/01/21 10:59:35;;;;;;;2.30;1.30;;;;;;;;;;5008703;28;20041;-62
2024/01/21 11:02:00;;;;;;;2.53;1.40;;;;;;;;;;5014948;28;20029;-58
2024/01/21 11:04:26;;;;;;;2.38;1.60;;;;;;;;;;5017781;28;20081;-62
2024/01/21 11:06:52;;;;;;;3.03;1.58;;;;;;;;;;4998412;28;20511;-57
2024/01/21 11:09:23;;;;;;;2.40;1.73;;;;;;;;;;5029414;28;20045;-57
2024/01/21 11:11:49;;;;;;;2.97;1.60;;;;;;;;;;5015285;28;20504;-61
2024/01/21 11:14:34;;;;;;;2.30;1.50;;;;;;;;;;5009706;28;20096;-57
2024/01/21 11:17:00;;;;;;;3.00;1.63;;;;;;;;;;5006398;28;20038;-58
2024/01/21 11:19:29;;;;;;;2.40;1.50;;;;;;;;;;5005326;28;20034;-61
2024/01/21 11:21:54;;;;;;;3.08;1.58;;;;;;;;;;5007913;28;20061;-61
2024/01/21 11:24:20;;;;;;;2.70;1.75;;;;;;;;;;5008188;28;20049;-59
2024/01/21 11:26:46;;;;;;;2.85;1.50;;;;;;;;;;5005156;28;20127;-58
2024/01/21 11:29:22;;;;;;;2.15;1.45;;;;;;;;;;5007953;28;20431;-64
2024/01/21 11:32:06;;;;;;;2.53;1.60;;;;;;;;;;5000949;28;20029;-57
2024/01/21 11:34:51;;;;;;;3.13;1.73;;;;;;;;;;4999160;28;20121;-62
2024/01/21 11:37:16;;;;;;;2.55;1.63;;;;;;;;;;5003989;28;20034;-58
2024/01/21 11:39:42;;;;;;;3.00;1.77;;;;;;;;;;5005929;28;20136;-59
2024/01/21 11:42:08;;;;;;;2.72;1.77;;;;;;;;;;5008305;28;20038;-58
2024/01/21 11:44:33;;;;;;;2.20;1.70;;;;;;;;;;5008853;28;20060;-60
2024/01/21 11:47:02;;;;;;;4.10;1.98;;;;;;;;;;5012678;28;20658;-57
2024/01/21 11:49:27;;;;;;;1.98;1.40;;;;;;;;;;5008835;28;20111;-56
2024/01/21 11:51:53;;;;;;;2.75;1.58;;;;;;;;;;5015989;28;20037;-57
2024/01/21 11:54:19;;;;;;;2.00;1.30;;;;;;;;;;5010779;28;20099;-57
2024/01/21 11:56:45;;;;;;;3.22;1.67;;;;;;;;;;5000483;28;20034;-58
2024/01/21 11:59:10;;;;;;;2.33;1.60;;;;;;;;;;5008074;28;20053;-57
2024/01/21 12:01:36;;;;;;;3.15;1.67;;;;;;;;;;5003716;28;20049;-59
2024/01/21 12:04:01;;;;;;;3.42;1.63;;;;;;;;;;5007782;28;20022;-59
2024/01/21 12:06:27;;;;;;;2.75;1.50;;;;;;;;;;5008125;28;20044;-57
2024/01/21 12:08:52;;;;;;;3.05;1.70;;;;;;;;;;4999132;28;20046;-63
2024/01/21 12:11:17;;;;;;;3.03;1.90;;;;;;;;;;5003211;28;20143;-61
2024/01/21 12:13:45;;;;;;;2.00;1.40;;;;;;;;;;5005489;28;20165;-60
2024/01/21 12:16:11;;;;;;;3.03;1.48;;;;;;;;;;5002773;28;20045;-57
2024/01/21 12:18:37;;;;;;;2.67;1.60;;;;;;;;;;5000439;28;20038;-60
2024/01/21 12:21:03;;;;;;;2.58;1.50;;;;;;;;;;5002194;28;20149;-62
2024/01/21 12:23:28;;;;;;;3.40;2.03;;;;;;;;;;5001091;28;20034;-66
2024/01/21 12:25:54;;;;;;;2.47;1.55;;;;;;;;;;4999066;28;20041;-57
2024/01/21 12:28:19;;;;;;;2.40;1.70;;;;;;;;;;5000232;28;20039;-58
2024/01/21 12:30:45;;;;;;;2.05;1.30;;;;;;;;;;4994649;28;20045;-64
2024/01/21 12:33:11;;;;;;;1.70;1.27;;;;;;;;;;4998345;28;20104;-61
2024/01/21 12:35:36;;;;;;;2.17;1.52;;;;;;;;;;4998872;28;20508;-57
2024/01/21 12:38:01;;;;;;;2.63;1.55;;;;;;;;;;5001902;28;20046;-62
2024/01/21 12:40:27;;;;;;;2.55;1.80;;;;;;;;;;5000381;28;20508;-63
2024/01/21 12:42:52;;;;;;;2.30;1.63;;;;;;;;;;5000199;28;20079;-65
2024/01/21 12:45:17;;;;;;;2.40;1.42;;;;;;;;;;4994777;28;20065;-63
2024/01/21 12:47:43;;;;;;;2.35;1.70;;;;;;;;;;4988517;28;20042;-62
2024/01/21 12:50:09;;;;;;;2.67;1.50;;;;;;;;;;5000091;28;20521;-60
2024/01/21 12:52:35;;;;;;;2.72;1.70;;;;;;;;;;5005084;28;20100;-64
2024/01/21 12:55:00;;;;;;;2.60;1.75;;;;;;;;;;4998651;28;20025;-61
2024/01/21 12:57:26;;;;;;;3.17;1.52;;;;;;;;;;5001831;28;20022;-63
2024/01/21 12:59:52;;;;;;;2.90;1.70;;;;;;;;;;5012383;28;20490;-61
2024/01/21 13:02:17;;;;;;;2.55;2.10;;;;;;;;;;5015493;28;20146;-58
2024/01/21 13:04:42;;;;;;;1.90;1.30;;;;;;;;;;5001472;28;20101;-59
2024/01/21 13:07:08;;;;;;;3.08;1.60;;;;;;;;;;5012115;28;20040;-67
2024/01/21 13:09:33;;;;;;;3.33;2.10;;;;;;;;;;5010351;28;20084;-59
2024/01/21 13:11:58;;;;;;;2.60;1.60;;;;;;;;;;5006744;28;20050;-61
2024/01/21 13:14:24;;;;;;;2.78;1.38;;;;;;;;;;5012682;28;20100;-60
2024/01/21 13:16:49;;;;;;;2.50;1.65;;;;;;;;;;5011357;28;20017;-59
2024/01/21 13:19:14;;;;;;;2.50;1.50;;;;;;;;;;5007184;28;20491;-57
2024/01/21 13:21:40;;;;;;;2.20;1.70;;;;;;;;;;5007387;28;20017;-61
2024/01/21 13:24:05;;;;;;;2.38;1.65;;;;;;;;;;5012836;28;20018;-59
2024/01/21 13:26:31;;;;;;;3.55;1.70;;;;;;;;;;5004008;28;20097;-59
2024/01/21 13:31:38;;;;;;;2.75;1.70;;;;;;;;;;4998109;28;20381;-61
2024/01/21 13:34:04;;;;;;;3.38;1.77;;;;;;;;;;5005952;28;20811;-61
2024/01/21 13:36:31;;;;;;;2.88;1.80;;;;;;;;;;5012102;28;20033;-65
2024/01/21 13:38:56;;;;;;;2.67;1.70;;;;;;;;;;5013058;28;20798;-59
2024/01/21 13:41:22;;;;;;;4.95;1.90;;;;;;;;;;5019758;28;20041;-66
2024/01/21 13:43:47;;;;;;;3.63;1.88;;;;;;;;;;5002737;28;20578;-66
2024/01/21 13:46:13;;;;;;;3.75;1.90;;;;;;;;;;4990981;28;20034;-65
2024/01/21 13:48:38;;;;;;;3.20;1.92;;;;;;;;;;4987921;28;20088;-63
2024/01/21 13:51:04;;;;;;;5.15;1.65;;;;;;;;;;4980965;28;20521;-64
2024/01/21 13:53:30;;;;;;;3.67;1.77;;;;;;;;;;4986656;28;20049;-66
2024/01/21 13:55:55;;;;;;;3.17;1.77;;;;;;;;;;4989107;28;20121;-60
2024/01/21 13:58:20;;;;;;;4.43;2.40;;;;;;;;;;4991803;28;20054;-65
2024/01/21 14:00:46;;;;;;;2.92;1.77;;;;;;;;;;4991323;28;20034;-61
2024/01/21 14:03:11;;;;;;;2.38;1.73;;;;;;;;;;4995412;28;20026;-62
2024/01/21 14:05:38;;;;;;;3.45;1.80;;;;;;;;;;5017682;28;20030;-61
2024/01/21 14:08:04;;;;;;;3.20;1.77;;;;;;;;;;5004648;28;20038;-62
2024/01/21 14:10:29;;;;;;;3.03;1.77;;;;;;;;;;5011999;28;20040;-64
2024/01/21 14:12:55;;;;;;;3.38;2.10;;;;;;;;;;5001364;28;20044;-64
2024/01/21 14:15:20;;;;;;;3.92;1.90;;;;;;;;;;5009936;28;20580;-65
2024/01/21 14:17:45;;;;;;;3.35;2.25;;;;;;;;;;5010436;28;20022;-62
2024/01/21 14:20:13;;;;;;;3.13;1.80;;;;;;;;;;5013938;28;20112;-64
2024/01/21 14:22:39;;;;;;;2.80;1.90;;;;;;;;;;5009446;28;20052;-66
2024/01/21 14:25:05;;;;;;;4.00;2.17;;;;;;;;;;5012751;28;20042;-57
2024/01/21 14:27:30;;;;;;;3.13;2.03;;;;;;;;;;4996861;28;20133;-63
2024/01/21 14:30:01;;;;;;;2.78;1.90;;;;;;;;;;5006197;28;20044;-64
2024/01/21 14:32:26;;;;;;;2.33;1.80;;;;;;;;;;5010459;28;20030;-62
2024/01/21 14:34:52;;;;;;;2.85;2.00;;;;;;;;;;4999939;28;20104;-60
2024/01/21 14:37:17;;;;;;;3.03;2.10;;;;;;;;;;4993600;28;20038;-64
2024/01/21 14:39:42;;;;;;;2.80;2.00;;;;;;;;;;4992570;28;20112;-60